Jpo Gemini — A8VF7 — position and weather

sailwx.info

Track history (hours):
 
Tides and Currents Weather Stations Pressure Air Temp Water Temp Dewpoint Dewpoint Depression Visibility Wind Speed Wind Dir Waves Ship Positions

Jpo Gemini

Last reported at 2016-Jun-23 02:00 UTC. Time now 2016-Jun-26 06:35 UTC.
Position N 09°36' W 016°24'.

Length 207 m; draft 10.7 m.

Type: Cargo ship. MMSI: 636091995.

Wind from 250 at 12 knots

Waves 2.0 meters (7 feet), 6 second period

Barometer 1016.0 mb
Air temperature 27.0 ° C
Visibility: greater than 10.8 NM
Dewpoint 25.0 ° C
Water temperature 30.0 ° C

Date/timePositionNaut miles runAvg speedWind from/ knotsBaromVisibWave heightAir tempDewpointWater temp
2016-Jun-23 02:00N 09°36' W 016°24'35118.7 250 / 121016.010.8 2.027.025.030.0
2016-Jun-22 07:16N 15°18' W 017°46'1318.8
2016-Jun-22 06:33N 15°31' W 017°45'69519.2
2016-Jun-20 18:25N 26°43' W 014°34'1820.5
2016-Jun-20 17:33N 26°58' W 014°24'2120.3
2016-Jun-20 16:32N 27°15' W 014°11'2020.4
2016-Jun-20 15:33N 27°32' W 013°59'2120.9
2016-Jun-20 14:34N 27°50' W 013°47'2120.6
2016-Jun-20 13:33N 28°07' W 013°33'2120.6
2016-Jun-20 12:33N 28°24' W 013°20'2020.3
2016-Jun-20 11:34N 28°40' W 013°07'2020.5
2016-Jun-20 10:34N 28°57' W 012°53'2020.4
2016-Jun-20 09:34N 29°13' W 012°39'2020.3
2016-Jun-20 08:33N 29°30' W 012°26'2020.5
2016-Jun-20 07:33N 29°47' W 012°12'2120.9
2016-Jun-20 06:33N 30°04' W 011°58'2020.5
2016-Jun-20 05:33N 30°20' W 011°44'2120.6
2016-Jun-20 04:33N 30°37' W 011°30'2120.8
2016-Jun-20 03:33N 30°54' W 011°16'2120.6
2016-Jun-20 02:33N 31°11' W 011°02'2020.3
2016-Jun-20 01:33N 31°27' W 010°49'2120.6
2016-Jun-20 00:34N 31°44' W 010°35'2120.7
2016-Jun-19 23:34N 32°01' W 010°20'2720.7
2016-Jun-19 22:15N 32°23' W 010°02'1420.6
2016-Jun-19 21:34N 32°34' W 009°51'2120.8
2016-Jun-19 20:34N 32°50' W 009°36'2120.7
2016-Jun-19 19:33N 33°06' W 009°20'2120.9
2016-Jun-19 18:33N 33°23' W 009°04'2920.8
2016-Jun-19 17:08N 33°46' W 008°42'1220.5
2016-Jun-19 16:34N 33°55' W 008°33'2020.5
2016-Jun-19 15:33N 34°10' W 008°17'2020.3
2016-Jun-19 14:33N 34°26' W 008°02'2020.0
2016-Jun-19 13:33N 34°41' W 007°44'2019.9
2016-Jun-19 12:33N 34°53' W 007°26'2019.7
2016-Jun-19 11:34N 35°06' W 007°07'9719.4
2016-Jun-19 06:34N 35°60' W 005°28'9 8.9
2016-Jun-19 05:33N 36°09' W 005°26'0 0.1
2016-Jun-19 04:33N 36°09' W 005°26'0 0.0
2016-Jun-19 03:33N 36°09' W 005°26'0 0.0
2016-Jun-19 02:33N 36°09' W 005°26'0 0.0
2016-Jun-19 01:33N 36°09' W 005°26'0 0.0
2016-Jun-19 00:33N 36°09' W 005°26'0 0.0
2016-Jun-18 23:33N 36°09' W 005°26'0 0.0
2016-Jun-18 22:33N 36°09' W 005°26'0 0.0
2016-Jun-18 21:33N 36°09' W 005°26'0 0.0
2016-Jun-18 20:33N 36°09' W 005°26'0 0.0
2016-Jun-18 19:33N 36°09' W 005°26'0 0.0
2016-Jun-18 18:33N 36°09' W 005°26'0 0.0
2016-Jun-18 17:30N 36°09' W 005°26'0 0.0
2016-Jun-18 16:33N 36°09' W 005°26'0 0.0
2016-Jun-18 15:33N 36°09' W 005°26'0 0.0
2016-Jun-18 14:33N 36°09' W 005°26'0 0.0
2016-Jun-18 13:33N 36°09' W 005°26'0 0.0
2016-Jun-18 12:33N 36°09' W 005°26'0 0.0
2016-Jun-18 11:33N 36°09' W 005°26'0 0.0
2016-Jun-18 10:30N 36°09' W 005°26'0 0.0
2016-Jun-18 09:33N 36°09' W 005°26'0 0.0
2016-Jun-18 08:33N 36°09' W 005°26'0 0.0
2016-Jun-18 07:33N 36°09' W 005°26'2 2.0
2016-Jun-18 06:32N 36°07' W 005°25'0 0.2
2016-Jun-18 05:32N 36°07' W 005°25'0 0.1
2016-Jun-18 04:26N 36°07' W 005°24'0 0.1
2016-Jun-18 03:32N 36°07' W 005°24'0 0.1
2016-Jun-18 02:32N 36°07' W 005°24'0 0.1
2016-Jun-18 01:32N 36°07' W 005°24'0 0.0
2016-Jun-18 00:32N 36°07' W 005°24'0 0.1
2016-Jun-17 23:32N 36°07' W 005°25'0 0.1
2016-Jun-17 22:32N 36°07' W 005°25'0 0.1
2016-Jun-17 21:32N 36°07' W 005°24'0 0.0
2016-Jun-17 20:32N 36°07' W 005°24'0 0.1
2016-Jun-17 19:32N 36°07' W 005°25'0 0.2
2016-Jun-17 18:29N 36°07' W 005°24'0 0.0
2016-Jun-17 17:32N 36°07' W 005°24'0 0.0
2016-Jun-17 16:32N 36°07' W 005°24'0 0.0
2016-Jun-17 15:33N 36°07' W 005°24'3 3.1
2016-Jun-17 14:33N 36°05' W 005°22'8 8.0
2016-Jun-17 13:33N 35°57' W 005°25'  
Track history (hours):
 
Tides and Currents Weather Stations Pressure Air Temp Water Temp Dewpoint Dewpoint Depression Visibility Wind Speed Wind Dir Waves Ship Positions

Jpo Gemini

Last reported at 2016-Jun-23 02:00 UTC. Time now 2016-Jun-26 06:35 UTC.
Position N 09°36' W 016°24'.

Length 207 m; draft 10.7 m.

Type: Cargo ship. MMSI: 636091995.

Wind from 250 at 12 knots

Waves 2.0 meters (7 feet), 6 second period

Barometer 1016.0 mb
Air temperature 27.0 ° C
Visibility: greater than 10.8 NM
Dewpoint 25.0 ° C
Water temperature 30.0 ° C

Date/timePositionNaut miles runAvg speedWind from/ knotsBaromVisibWave heightAir tempDewpointWater temp
2016-Jun-23 02:00N 09°36' W 016°24'35118.7 250 / 121016.010.8 2.027.025.030.0
2016-Jun-22 07:16N 15°18' W 017°46'1318.8
2016-Jun-22 06:33N 15°31' W 017°45'69519.2
2016-Jun-20 18:25N 26°43' W 014°34'1820.5
2016-Jun-20 17:33N 26°58' W 014°24'2120.3
2016-Jun-20 16:32N 27°15' W 014°11'2020.4
2016-Jun-20 15:33N 27°32' W 013°59'2120.9
2016-Jun-20 14:34N 27°50' W 013°47'2120.6
2016-Jun-20 13:33N 28°07' W 013°33'2120.6
2016-Jun-20 12:33N 28°24' W 013°20'2020.3
2016-Jun-20 11:34N 28°40' W 013°07'2020.5
2016-Jun-20 10:34N 28°57' W 012°53'2020.4
2016-Jun-20 09:34N 29°13' W 012°39'2020.3
2016-Jun-20 08:33N 29°30' W 012°26'2020.5
2016-Jun-20 07:33N 29°47' W 012°12'2120.9
2016-Jun-20 06:33N 30°04' W 011°58'2020.5
2016-Jun-20 05:33N 30°20' W 011°44'2120.6
2016-Jun-20 04:33N 30°37' W 011°30'2120.8
2016-Jun-20 03:33N 30°54' W 011°16'2120.6
2016-Jun-20 02:33N 31°11' W 011°02'2020.3
2016-Jun-20 01:33N 31°27' W 010°49'2120.6
2016-Jun-20 00:34N 31°44' W 010°35'2120.7
2016-Jun-19 23:34N 32°01' W 010°20'2720.7
2016-Jun-19 22:15N 32°23' W 010°02'1420.6
2016-Jun-19 21:34N 32°34' W 009°51'2120.8
2016-Jun-19 20:34N 32°50' W 009°36'2120.7
2016-Jun-19 19:33N 33°06' W 009°20'2120.9
2016-Jun-19 18:33N 33°23' W 009°04'2920.8
2016-Jun-19 17:08N 33°46' W 008°42'1220.5
2016-Jun-19 16:34N 33°55' W 008°33'2020.5
2016-Jun-19 15:33N 34°10' W 008°17'2020.3
2016-Jun-19 14:33N 34°26' W 008°02'2020.0
2016-Jun-19 13:33N 34°41' W 007°44'2019.9
2016-Jun-19 12:33N 34°53' W 007°26'2019.7
2016-Jun-19 11:34N 35°06' W 007°07'9719.4
2016-Jun-19 06:34N 35°60' W 005°28'9 8.9
2016-Jun-19 05:33N 36°09' W 005°26'0 0.1
2016-Jun-19 04:33N 36°09' W 005°26'0 0.0
2016-Jun-19 03:33N 36°09' W 005°26'0 0.0
2016-Jun-19 02:33N 36°09' W 005°26'0 0.0
2016-Jun-19 01:33N 36°09' W 005°26'0 0.0
2016-Jun-19 00:33N 36°09' W 005°26'0 0.0
2016-Jun-18 23:33N 36°09' W 005°26'0 0.0
2016-Jun-18 22:33N 36°09' W 005°26'0 0.0
2016-Jun-18 21:33N 36°09' W 005°26'0 0.0
2016-Jun-18 20:33N 36°09' W 005°26'0 0.0
2016-Jun-18 19:33N 36°09' W 005°26'0 0.0
2016-Jun-18 18:33N 36°09' W 005°26'0 0.0
2016-Jun-18 17:30N 36°09' W 005°26'0 0.0
2016-Jun-18 16:33N 36°09' W 005°26'0 0.0
2016-Jun-18 15:33N 36°09' W 005°26'0 0.0
2016-Jun-18 14:33N 36°09' W 005°26'0 0.0
2016-Jun-18 13:33N 36°09' W 005°26'0 0.0
2016-Jun-18 12:33N 36°09' W 005°26'0 0.0
2016-Jun-18 11:33N 36°09' W 005°26'0 0.0
2016-Jun-18 10:30N 36°09' W 005°26'0 0.0
2016-Jun-18 09:33N 36°09' W 005°26'0 0.0
2016-Jun-18 08:33N 36°09' W 005°26'0 0.0
2016-Jun-18 07:33N 36°09' W 005°26'2 2.0
2016-Jun-18 06:32N 36°07' W 005°25'0 0.2
2016-Jun-18 05:32N 36°07' W 005°25'0 0.1
2016-Jun-18 04:26N 36°07' W 005°24'0 0.1
2016-Jun-18 03:32N 36°07' W 005°24'0 0.1
2016-Jun-18 02:32N 36°07' W 005°24'0 0.1
2016-Jun-18 01:32N 36°07' W 005°24'0 0.0
2016-Jun-18 00:32N 36°07' W 005°24'0 0.1
2016-Jun-17 23:32N 36°07' W 005°25'0 0.1
2016-Jun-17 22:32N 36°07' W 005°25'0 0.1
2016-Jun-17 21:32N 36°07' W 005°24'0 0.0
2016-Jun-17 20:32N 36°07' W 005°24'0 0.1
2016-Jun-17 19:32N 36°07' W 005°25'0 0.2
2016-Jun-17 18:29N 36°07' W 005°24'0 0.0
2016-Jun-17 17:32N 36°07' W 005°24'0 0.0
2016-Jun-17 16:32N 36°07' W 005°24'0 0.0
2016-Jun-17 15:33N 36°07' W 005°24'3 3.1
2016-Jun-17 14:33N 36°05' W 005°22'8 8.0
2016-Jun-17 13:33N 35°57' W 005°25'  

Dump ship's entire track history